sensor_id;sensor_type;location;lat;lon;timestamp;temperature;humidity
70676;DHT22;59069;52.242;20.900;2024-02-21T00:00:53;4.28;88.38
70676;DHT22;59069;52.242;20.900;2024-02-21T00:03:18;4.34;88.46
70676;DHT22;59069;52.242;20.900;2024-02-21T00:05:44;4.34;88.44
70676;DHT22;59069;52.242;20.900;2024-02-21T00:08:10;4.39;88.40
70676;DHT22;59069;52.242;20.900;2024-02-21T00:10:35;4.42;88.34
70676;DHT22;59069;52.242;20.900;2024-02-21T00:13:01;4.45;88.34
70676;DHT22;59069;52.242;20.900;2024-02-21T00:15:26;4.49;88.32
70676;DHT22;59069;52.242;20.900;2024-02-21T00:17:52;4.50;88.30
70676;DHT22;59069;52.242;20.900;2024-02-21T00:20:17;4.56;88.26
70676;DHT22;59069;52.242;20.900;2024-02-21T00:22:43;4.56;88.23
70676;DHT22;59069;52.242;20.900;2024-02-21T00:25:09;4.60;88.20
70676;DHT22;59069;52.242;20.900;2024-02-21T00:27:34;4.63;88.13
70676;DHT22;59069;52.242;20.900;2024-02-21T00:30:00;4.63;88.15
70676;DHT22;59069;52.242;20.900;2024-02-21T00:32:25;4.69;88.10
70676;DHT22;59069;52.242;20.900;2024-02-21T00:34:51;4.72;88.08
70676;DHT22;59069;52.242;20.900;2024-02-21T00:37:16;4.73;88.15
70676;DHT22;59069;52.242;20.900;2024-02-21T00:39:41;4.72;88.16
70676;DHT22;59069;52.242;20.900;2024-02-21T00:42:07;4.76;88.15
70676;DHT22;59069;52.242;20.900;2024-02-21T00:44:33;4.77;88.16
70676;DHT22;59069;52.242;20.900;2024-02-21T00:46:58;4.79;88.19
70676;DHT22;59069;52.242;20.900;2024-02-21T00:49:24;4.86;88.17
70676;DHT22;59069;52.242;20.900;2024-02-21T00:51:49;4.87;88.17
70676;DHT22;59069;52.242;20.900;2024-02-21T00:54:14;4.94;88.15
70676;DHT22;59069;52.242;20.900;2024-02-21T00:56:41;4.96;88.05
70676;DHT22;59069;52.242;20.900;2024-02-21T00:59:06;5.00;87.97
70676;DHT22;59069;52.242;20.900;2024-02-21T01:01:32;5.03;87.89
70676;DHT22;59069;52.242;20.900;2024-02-21T01:03:57;5.04;87.88
70676;DHT22;59069;52.242;20.900;2024-02-21T01:06:22;5.06;87.88
70676;DHT22;59069;52.242;20.900;2024-02-21T01:08:48;5.06;88.01
70676;DHT22;59069;52.242;20.900;2024-02-21T01:11:15;5.07;88.05
70676;DHT22;59069;52.242;20.900;2024-02-21T01:13:40;5.07;88.09
70676;DHT22;59069;52.242;20.900;2024-02-21T01:16:06;5.10;88.09
70676;DHT22;59069;52.242;20.900;2024-02-21T01:18:33;5.11;88.16
70676;DHT22;59069;52.242;20.900;2024-02-21T01:20:58;5.08;88.14
70676;DHT22;59069;52.242;20.900;2024-02-21T01:23:24;5.11;88.23
70676;DHT22;59069;52.242;20.900;2024-02-21T01:25:50;5.11;88.36
70676;DHT22;59069;52.242;20.900;2024-02-21T01:28:15;5.08;88.44
70676;DHT22;59069;52.242;20.900;2024-02-21T01:30:40;5.11;88.64
70676;DHT22;59069;52.242;20.900;2024-02-21T01:33:06;5.10;88.78
70676;DHT22;59069;52.242;20.900;2024-02-21T01:35:31;5.08;88.86
70676;DHT22;59069;52.242;20.900;2024-02-21T01:37:56;5.10;89.06
70676;DHT22;59069;52.242;20.900;2024-02-21T01:40:22;5.08;89.20
70676;DHT22;59069;52.242;20.900;2024-02-21T01:42:47;5.10;89.26
70676;DHT22;59069;52.242;20.900;2024-02-21T01:45:13;5.08;89.34
70676;DHT22;59069;52.242;20.900;2024-02-21T01:47:39;5.11;89.45
70676;DHT22;59069;52.242;20.900;2024-02-21T01:50:05;5.10;89.50
70676;DHT22;59069;52.242;20.900;2024-02-21T01:52:31;5.11;89.63
70676;DHT22;59069;52.242;20.900;2024-02-21T01:54:57;5.10;89.68
70676;DHT22;59069;52.242;20.900;2024-02-21T01:57:23;5.07;89.74
70676;DHT22;59069;52.242;20.900;2024-02-21T01:59:49;5.08;89.78
70676;DHT22;59069;52.242;20.900;2024-02-21T02:02:15;5.08;89.76
70676;DHT22;59069;52.242;20.900;2024-02-21T02:04:42;5.11;89.84
70676;DHT22;59069;52.242;20.900;2024-02-21T02:07:07;5.14;89.96
70676;DHT22;59069;52.242;20.900;2024-02-21T02:09:33;5.11;89.90
70676;DHT22;59069;52.242;20.900;2024-02-21T02:11:58;5.16;89.95
70676;DHT22;59069;52.242;20.900;2024-02-21T02:14:25;5.14;90.03
70676;DHT22;59069;52.242;20.900;2024-02-21T02:16:50;5.17;90.08
70676;DHT22;59069;52.242;20.900;2024-02-21T02:19:16;5.20;90.06
70676;DHT22;59069;52.242;20.900;2024-02-21T02:21:46;5.17;90.02
70676;DHT22;59069;52.242;20.900;2024-02-21T02:24:13;5.21;89.98
70676;DHT22;59069;52.242;20.900;2024-02-21T02:26:39;5.20;89.96
70676;DHT22;59069;52.242;20.900;2024-02-21T02:29:05;5.24;89.98
70676;DHT22;59069;52.242;20.900;2024-02-21T02:31:30;5.26;89.97
70676;DHT22;59069;52.242;20.900;2024-02-21T02:33:56;5.26;89.99
70676;DHT22;59069;52.242;20.900;2024-02-21T02:36:21;5.27;89.89
70676;DHT22;59069;52.242;20.900;2024-02-21T02:38:46;5.27;89.81
70676;DHT22;59069;52.242;20.900;2024-02-21T02:41:12;5.27;89.76
70676;DHT22;59069;52.242;20.900;2024-02-21T02:43:37;5.27;89.72
70676;DHT22;59069;52.242;20.900;2024-02-21T02:46:03;5.28;89.72
70676;DHT22;59069;52.242;20.900;2024-02-21T02:48:29;5.27;89.79
70676;DHT22;59069;52.242;20.900;2024-02-21T02:50:54;5.30;89.90
70676;DHT22;59069;52.242;20.900;2024-02-21T02:53:20;5.30;89.84
70676;DHT22;59069;52.242;20.900;2024-02-21T02:55:45;5.30;89.84
70676;DHT22;59069;52.242;20.900;2024-02-21T02:58:11;5.32;89.84
70676;DHT22;59069;52.242;20.900;2024-02-21T03:00:36;5.31;89.78
70676;DHT22;59069;52.242;20.900;2024-02-21T03:03:02;5.31;89.77
70676;DHT22;59069;52.242;20.900;2024-02-21T03:05:30;5.34;89.62
70676;DHT22;59069;52.242;20.900;2024-02-21T03:07:56;5.32;89.55
70676;DHT22;59069;52.242;20.900;2024-02-21T03:10:21;5.31;89.52
70676;DHT22;59069;52.242;20.900;2024-02-21T03:12:47;5.28;89.50
70676;DHT22;59069;52.242;20.900;2024-02-21T03:15:13;5.28;89.40
70676;DHT22;59069;52.242;20.900;2024-02-21T03:17:39;5.24;89.34
70676;DHT22;59069;52.242;20.900;2024-02-21T03:20:06;5.24;89.36
70676;DHT22;59069;52.242;20.900;2024-02-21T03:22:34;5.20;89.43
70676;DHT22;59069;52.242;20.900;2024-02-21T03:25:00;5.20;89.46
70676;DHT22;59069;52.242;20.900;2024-02-21T03:27:26;5.20;89.43
70676;DHT22;59069;52.242;20.900;2024-02-21T03:29:51;5.16;89.55
70676;DHT22;59069;52.242;20.900;2024-02-21T03:32:17;5.14;89.70
70676;DHT22;59069;52.242;20.900;2024-02-21T03:34:42;5.17;89.82
70676;DHT22;59069;52.242;20.900;2024-02-21T03:37:07;5.16;89.90
70676;DHT22;59069;52.242;20.900;2024-02-21T03:39:33;5.18;90.03
70676;DHT22;59069;52.242;20.900;2024-02-21T03:41:59;5.21;90.13
70676;DHT22;59069;52.242;20.900;2024-02-21T03:44:30;5.23;90.15
70676;DHT22;59069;52.242;20.900;2024-02-21T03:46:56;5.24;90.10
70676;DHT22;59069;52.242;20.900;2024-02-21T03:49:21;5.23;90.13
70676;DHT22;59069;52.242;20.900;2024-02-21T03:51:46;5.26;90.07
70676;DHT22;59069;52.242;20.900;2024-02-21T03:54:12;5.30;90.07
70676;DHT22;59069;52.242;20.900;2024-02-21T03:56:38;5.27;90.04
70676;DHT22;59069;52.242;20.900;2024-02-21T03:59:07;5.31;90.08
70676;DHT22;59069;52.242;20.900;2024-02-21T04:01:34;5.32;90.10
70676;DHT22;59069;52.242;20.900;2024-02-21T04:03:59;5.34;90.07
70676;DHT22;59069;52.242;20.900;2024-02-21T04:06:25;5.38;90.07
70676;DHT22;59069;52.242;20.900;2024-02-21T04:08:50;5.38;90.08
70676;DHT22;59069;52.242;20.900;2024-02-21T04:11:15;5.41;90.06
70676;DHT22;59069;52.242;20.900;2024-02-21T04:13:42;5.41;90.06
70676;DHT22;59069;52.242;20.900;2024-02-21T04:16:07;5.42;90.09
70676;DHT22;59069;52.242;20.900;2024-02-21T04:18:33;5.48;90.17
70676;DHT22;59069;52.242;20.900;2024-02-21T04:20:58;5.47;90.12
70676;DHT22;59069;52.242;20.900;2024-02-21T04:23:23;5.49;90.08
70676;DHT22;59069;52.242;20.900;2024-02-21T04:25:49;5.48;90.10
70676;DHT22;59069;52.242;20.900;2024-02-21T04:28:14;5.51;90.12
70676;DHT22;59069;52.242;20.900;2024-02-21T04:30:39;5.52;90.10
70676;DHT22;59069;52.242;20.900;2024-02-21T04:33:05;5.55;90.08
70676;DHT22;59069;52.242;20.900;2024-02-21T04:35:30;5.55;90.08
70676;DHT22;59069;52.242;20.900;2024-02-21T04:37:56;5.56;90.09
70676;DHT22;59069;52.242;20.900;2024-02-21T04:40:21;5.59;90.12
70676;DHT22;59069;52.242;20.900;2024-02-21T04:42:46;5.62;90.07
70676;DHT22;59069;52.242;20.900;2024-02-21T04:45:12;5.62;90.07
70676;DHT22;59069;52.242;20.900;2024-02-21T04:47:37;5.63;90.01
70676;DHT22;59069;52.242;20.900;2024-02-21T04:50:03;5.65;89.93
70676;DHT22;59069;52.242;20.900;2024-02-21T04:52:28;5.66;89.88
70676;DHT22;59069;52.242;20.900;2024-02-21T04:54:54;5.66;89.85
70676;DHT22;59069;52.242;20.900;2024-02-21T04:57:20;5.66;89.89
70676;DHT22;59069;52.242;20.900;2024-02-21T04:59:48;5.66;89.91
70676;DHT22;59069;52.242;20.900;2024-02-21T05:02:14;5.65;89.93
70676;DHT22;59069;52.242;20.900;2024-02-21T05:04:39;5.66;89.90
70676;DHT22;59069;52.242;20.900;2024-02-21T05:07:06;5.66;89.83
70676;DHT22;59069;52.242;20.900;2024-02-21T05:09:32;5.68;89.90
70676;DHT22;59069;52.242;20.900;2024-02-21T05:11:57;5.66;89.94
70676;DHT22;59069;52.242;20.900;2024-02-21T05:14:24;5.72;89.96
70676;DHT22;59069;52.242;20.900;2024-02-21T05:16:50;5.73;90.04
70676;DHT22;59069;52.242;20.900;2024-02-21T05:19:15;5.76;90.08
70676;DHT22;59069;52.242;20.900;2024-02-21T05:21:40;5.78;90.05
70676;DHT22;59069;52.242;20.900;2024-02-21T05:24:06;5.80;90.03
70676;DHT22;59069;52.242;20.900;2024-02-21T05:26:31;5.82;89.97
70676;DHT22;59069;52.242;20.900;2024-02-21T05:28:57;5.86;89.92
70676;DHT22;59069;52.242;20.900;2024-02-21T05:31:24;5.88;89.83
70676;DHT22;59069;52.242;20.900;2024-02-21T05:33:49;5.89;89.78
70676;DHT22;59069;52.242;20.900;2024-02-21T05:36:15;5.90;89.73
70676;DHT22;59069;52.242;20.900;2024-02-21T05:38:40;5.90;89.78
70676;DHT22;59069;52.242;20.900;2024-02-21T05:41:06;5.92;89.78
70676;DHT22;59069;52.242;20.900;2024-02-21T05:43:31;5.95;89.76
70676;DHT22;59069;52.242;20.900;2024-02-21T05:45:57;5.93;89.73
70676;DHT22;59069;52.242;20.900;2024-02-21T05:48:23;5.92;89.68
70676;DHT22;59069;52.242;20.900;2024-02-21T05:50:49;5.98;89.75
70676;DHT22;59069;52.242;20.900;2024-02-21T05:53:14;5.98;89.67
70676;DHT22;59069;52.242;20.900;2024-02-21T05:55:40;6.00;89.65
70676;DHT22;59069;52.242;20.900;2024-02-21T05:58:05;6.03;89.64
70676;DHT22;59069;52.242;20.900;2024-02-21T06:00:31;6.05;89.64
70676;DHT22;59069;52.242;20.900;2024-02-21T06:02:57;6.07;89.62
70676;DHT22;59069;52.242;20.900;2024-02-21T06:05:22;6.10;89.59
70676;DHT22;59069;52.242;20.900;2024-02-21T06:07:47;6.12;89.56
70676;DHT22;59069;52.242;20.900;2024-02-21T06:10:13;6.14;89.50
70676;DHT22;59069;52.242;20.900;2024-02-21T06:12:39;6.17;89.46
70676;DHT22;59069;52.242;20.900;2024-02-21T06:15:05;6.16;89.51
70676;DHT22;59069;52.242;20.900;2024-02-21T06:17:30;6.17;89.48
70676;DHT22;59069;52.242;20.900;2024-02-21T06:19:55;6.19;89.35
70676;DHT22;59069;52.242;20.900;2024-02-21T06:22:21;6.19;89.51
70676;DHT22;59069;52.242;20.900;2024-02-21T06:24:46;6.20;89.37
70676;DHT22;59069;52.242;20.900;2024-02-21T06:27:11;6.26;89.46
70676;DHT22;59069;52.242;20.900;2024-02-21T06:29:37;6.31;89.38
70676;DHT22;59069;52.242;20.900;2024-02-21T06:32:03;6.33;89.31
70676;DHT22;59069;52.242;20.900;2024-02-21T06:34:28;6.38;89.18
70676;DHT22;59069;52.242;20.900;2024-02-21T06:36:53;6.37;88.93
70676;DHT22;59069;52.242;20.900;2024-02-21T06:39:19;6.38;89.01
70676;DHT22;59069;52.242;20.900;2024-02-21T06:41:44;6.40;88.97
70676;DHT22;59069;52.242;20.900;2024-02-21T06:44:13;6.43;88.90
70676;DHT22;59069;52.242;20.900;2024-02-21T06:46:38;6.43;88.66
70676;DHT22;59069;52.242;20.900;2024-02-21T06:49:04;6.43;88.72
70676;DHT22;59069;52.242;20.900;2024-02-21T06:51:29;6.43;88.61
70676;DHT22;59069;52.242;20.900;2024-02-21T06:53:55;6.45;88.50
70676;DHT22;59069;52.242;20.900;2024-02-21T06:56:22;6.47;88.57
70676;DHT22;59069;52.242;20.900;2024-02-21T06:58:52;6.50;88.52
70676;DHT22;59069;52.242;20.900;2024-02-21T07:01:17;6.48;88.42
70676;DHT22;59069;52.242;20.900;2024-02-21T07:03:42;6.50;88.41
70676;DHT22;59069;52.242;20.900;2024-02-21T07:06:08;6.51;88.36
70676;DHT22;59069;52.242;20.900;2024-02-21T07:08:33;6.52;88.49
70676;DHT22;59069;52.242;20.900;2024-02-21T07:10:59;6.57;88.38
70676;DHT22;59069;52.242;20.900;2024-02-21T07:13:24;6.58;88.24
70676;DHT22;59069;52.242;20.900;2024-02-21T07:15:49;6.61;88.12
70676;DHT22;59069;52.242;20.900;2024-02-21T07:18:15;6.61;88.04
70676;DHT22;59069;52.242;20.900;2024-02-21T07:20:41;6.63;88.09
70676;DHT22;59069;52.242;20.900;2024-02-21T07:23:07;6.67;88.16
70676;DHT22;59069;52.242;20.900;2024-02-21T07:25:33;6.70;88.06
70676;DHT22;59069;52.242;20.900;2024-02-21T07:27:58;6.72;87.86
70676;DHT22;59069;52.242;20.900;2024-02-21T07:30:24;6.75;87.77
70676;DHT22;59069;52.242;20.900;2024-02-21T07:32:50;6.75;87.64
70676;DHT22;59069;52.242;20.900;2024-02-21T07:35:17;6.75;87.51
70676;DHT22;59069;52.242;20.900;2024-02-21T07:37:42;6.78;87.44
70676;DHT22;59069;52.242;20.900;2024-02-21T07:40:15;6.80;87.57
70676;DHT22;59069;52.242;20.900;2024-02-21T07:42:40;6.85;87.93
70676;DHT22;59069;52.242;20.900;2024-02-21T07:45:07;6.92;87.89
70676;DHT22;59069;52.242;20.900;2024-02-21T07:47:33;7.01;87.82
70676;DHT22;59069;52.242;20.900;2024-02-21T07:49:58;7.09;87.77
70676;DHT22;59069;52.242;20.900;2024-02-21T07:52:23;7.16;87.46
70676;DHT22;59069;52.242;20.900;2024-02-21T07:54:49;7.16;87.08
70676;DHT22;59069;52.242;20.900;2024-02-21T07:57:15;7.22;86.85
70676;DHT22;59069;52.242;20.900;2024-02-21T07:59:40;7.23;86.86
70676;DHT22;59069;52.242;20.900;2024-02-21T08:02:06;7.32;86.79
70676;DHT22;59069;52.242;20.900;2024-02-21T08:04:32;7.42;86.75
70676;DHT22;59069;52.242;20.900;2024-02-21T08:06:57;7.44;86.60
70676;DHT22;59069;52.242;20.900;2024-02-21T08:09:26;7.49;86.28
70676;DHT22;59069;52.242;20.900;2024-02-21T08:11:52;7.60;86.15
70676;DHT22;59069;52.242;20.900;2024-02-21T08:14:17;7.63;85.72
70676;DHT22;59069;52.242;20.900;2024-02-21T08:16:43;7.69;85.79
70676;DHT22;59069;52.242;20.900;2024-02-21T08:19:11;7.73;85.71
70676;DHT22;59069;52.242;20.900;2024-02-21T08:21:36;7.74;85.25
70676;DHT22;59069;52.242;20.900;2024-02-21T08:24:01;7.78;84.95
70676;DHT22;59069;52.242;20.900;2024-02-21T08:26:27;7.75;84.63
70676;DHT22;59069;52.242;20.900;2024-02-21T08:28:55;7.77;84.51
70676;DHT22;59069;52.242;20.900;2024-02-21T08:31:23;7.75;84.33
70676;DHT22;59069;52.242;20.900;2024-02-21T08:33:49;7.74;84.45
70676;DHT22;59069;52.242;20.900;2024-02-21T08:36:18;7.75;84.32
70676;DHT22;59069;52.242;20.900;2024-02-21T08:38:45;7.80;84.41
70676;DHT22;59069;52.242;20.900;2024-02-21T08:41:10;7.83;84.32
70676;DHT22;59069;52.242;20.900;2024-02-21T08:43:36;7.84;84.33
70676;DHT22;59069;52.242;20.900;2024-02-21T08:46:01;7.93;84.61
70676;DHT22;59069;52.242;20.900;2024-02-21T08:48:27;7.98;84.39
70676;DHT22;59069;52.242;20.900;2024-02-21T08:50:52;8.02;83.85
70676;DHT22;59069;52.242;20.900;2024-02-21T08:53:19;8.02;83.83
70676;DHT22;59069;52.242;20.900;2024-02-21T08:55:45;8.01;83.57
70676;DHT22;59069;52.242;20.900;2024-02-21T08:58:12;8.02;83.49
70676;DHT22;59069;52.242;20.900;2024-02-21T09:00:37;8.07;83.67
70676;DHT22;59069;52.242;20.900;2024-02-21T09:03:03;8.02;83.34
70676;DHT22;59069;52.242;20.900;2024-02-21T09:05:28;8.08;83.43
70676;DHT22;59069;52.242;20.900;2024-02-21T09:07:54;8.11;83.39
70676;DHT22;59069;52.242;20.900;2024-02-21T09:10:20;8.15;83.49
70676;DHT22;59069;52.242;20.900;2024-02-21T09:12:45;8.21;83.53
70676;DHT22;59069;52.242;20.900;2024-02-21T09:15:11;8.22;83.49
70676;DHT22;59069;52.242;20.900;2024-02-21T09:17:36;8.25;83.45
70676;DHT22;59069;52.242;20.900;2024-02-21T09:20:02;8.26;83.13
70676;DHT22;59069;52.242;20.900;2024-02-21T09:22:29;8.22;82.99
70676;DHT22;59069;52.242;20.900;2024-02-21T09:24:54;8.18;82.86
70676;DHT22;59069;52.242;20.900;2024-02-21T09:27:20;8.16;82.87
70676;DHT22;59069;52.242;20.900;2024-02-21T09:29:46;8.11;83.26
70676;DHT22;59069;52.242;20.900;2024-02-21T09:32:11;8.09;83.65
70676;DHT22;59069;52.242;20.900;2024-02-21T09:34:37;8.15;83.93
70676;DHT22;59069;52.242;20.900;2024-02-21T09:37:03;8.20;83.93
70676;DHT22;59069;52.242;20.900;2024-02-21T09:39:28;8.20;83.79
70676;DHT22;59069;52.242;20.900;2024-02-21T09:41:59;8.22;83.77
70676;DHT22;59069;52.242;20.900;2024-02-21T09:44:24;8.22;83.70
70676;DHT22;59069;52.242;20.900;2024-02-21T09:46:52;8.25;83.71
70676;DHT22;59069;52.242;20.900;2024-02-21T09:49:29;8.35;83.74
70676;DHT22;59069;52.242;20.900;2024-02-21T09:51:57;8.36;83.40
70676;DHT22;59069;52.242;20.900;2024-02-21T09:54:23;8.38;83.44
70676;DHT22;59069;52.242;20.900;2024-02-21T09:56:48;8.44;83.53
70676;DHT22;59069;52.242;20.900;2024-02-21T09:59:16;8.50;83.46
70676;DHT22;59069;52.242;20.900;2024-02-21T10:01:42;8.55;83.19
70676;DHT22;59069;52.242;20.900;2024-02-21T10:04:08;8.57;82.67
70676;DHT22;59069;52.242;20.900;2024-02-21T10:06:34;8.62;82.72
70676;DHT22;59069;52.242;20.900;2024-02-21T10:09:00;8.62;82.58
70676;DHT22;59069;52.242;20.900;2024-02-21T10:11:25;8.59;82.21
70676;DHT22;59069;52.242;20.900;2024-02-21T10:13:51;8.60;82.27
70676;DHT22;59069;52.242;20.900;2024-02-21T10:16:27;8.62;82.23
70676;DHT22;59069;52.242;20.900;2024-02-21T10:18:54;8.67;82.42
70676;DHT22;59069;52.242;20.900;2024-02-21T10:21:19;8.72;82.58
70676;DHT22;59069;52.242;20.900;2024-02-21T10:23:47;8.81;82.53
70676;DHT22;59069;52.242;20.900;2024-02-21T10:26:14;8.83;82.06
70676;DHT22;59069;52.242;20.900;2024-02-21T10:28:39;8.87;81.80
70676;DHT22;59069;52.242;20.900;2024-02-21T10:31:08;8.91;81.46
70676;DHT22;59069;52.242;20.900;2024-02-21T10:33:34;8.87;81.00
70676;DHT22;59069;52.242;20.900;2024-02-21T10:36:10;8.88;81.10
70676;DHT22;59069;52.242;20.900;2024-02-21T10:38:37;8.84;81.03
70676;DHT22;59069;52.242;20.900;2024-02-21T10:41:04;8.86;81.01
70676;DHT22;59069;52.242;20.900;2024-02-21T10:43:37;8.86;81.38
70676;DHT22;59069;52.242;20.900;2024-02-21T10:46:05;8.88;81.48
70676;DHT22;59069;52.242;20.900;2024-02-21T10:48:41;8.90;81.02
70676;DHT22;59069;52.242;20.900;2024-02-21T10:51:17;8.90;81.08
70676;DHT22;59069;52.242;20.900;2024-02-21T10:56:29;8.97;81.22
70676;DHT22;59069;52.242;20.900;2024-02-21T10:59:00;9.00;81.06
70676;DHT22;59069;52.242;20.900;2024-02-21T11:01:26;9.01;80.94
70676;DHT22;59069;52.242;20.900;2024-02-21T11:03:55;9.03;80.78
70676;DHT22;59069;52.242;20.900;2024-02-21T11:06:21;9.00;80.59
70676;DHT22;59069;52.242;20.900;2024-02-21T11:09:02;9.03;80.69
70676;DHT22;59069;52.242;20.900;2024-02-21T11:11:28;9.03;80.81
70676;DHT22;59069;52.242;20.900;2024-02-21T11:14:10;9.04;80.64
70676;DHT22;59069;52.242;20.900;2024-02-21T11:16:40;9.00;80.35
70676;DHT22;59069;52.242;20.900;2024-02-21T11:19:09;8.97;80.45
70676;DHT22;59069;52.242;20.900;2024-02-21T11:21:37;8.96;80.60
70676;DHT22;59069;52.242;20.900;2024-02-21T11:24:03;8.93;80.82
70676;DHT22;59069;52.242;20.900;2024-02-21T11:26:30;8.94;80.98
70676;DHT22;59069;52.242;20.900;2024-02-21T11:28:57;8.94;81.17
70676;DHT22;59069;52.242;20.900;2024-02-21T11:31:22;8.96;81.03
70676;DHT22;59069;52.242;20.900;2024-02-21T11:33:48;8.93;80.97
70676;DHT22;59069;52.242;20.900;2024-02-21T11:36:26;8.90;80.92
70676;DHT22;59069;52.242;20.900;2024-02-21T11:38:52;8.83;80.95
70676;DHT22;59069;52.242;20.900;2024-02-21T11:41:21;8.79;81.08
70676;DHT22;59069;52.242;20.900;2024-02-21T11:43:48;8.73;81.22
70676;DHT22;59069;52.242;20.900;2024-02-21T11:46:15;8.65;81.40
70676;DHT22;59069;52.242;20.900;2024-02-21T11:48:41;8.59;81.71
70676;DHT22;59069;52.242;20.900;2024-02-21T11:51:09;8.57;82.06
70676;DHT22;59069;52.242;20.900;2024-02-21T11:53:34;8.53;82.22
70676;DHT22;59069;52.242;20.900;2024-02-21T11:56:00;8.50;82.46
70676;DHT22;59069;52.242;20.900;2024-02-21T11:58:25;8.49;82.65
70676;DHT22;59069;52.242;20.900;2024-02-21T12:00:52;8.49;82.77
70676;DHT22;59069;52.242;20.900;2024-02-21T12:03:17;8.48;82.93
70676;DHT22;59069;52.242;20.900;2024-02-21T12:05:43;8.48;82.91
70676;DHT22;59069;52.242;20.900;2024-02-21T12:08:08;8.46;82.99
70676;DHT22;59069;52.242;20.900;2024-02-21T12:10:35;8.45;83.18
70676;DHT22;59069;52.242;20.900;2024-02-21T12:13:10;8.44;83.39
70676;DHT22;59069;52.242;20.900;2024-02-21T12:15:35;8.44;83.52
70676;DHT22;59069;52.242;20.900;2024-02-21T12:18:01;8.45;83.64
70676;DHT22;59069;52.242;20.900;2024-02-21T12:20:26;8.46;83.79
70676;DHT22;59069;52.242;20.900;2024-02-21T12:22:52;8.42;83.76
70676;DHT22;59069;52.242;20.900;2024-02-21T12:25:20;8.39;83.84
70676;DHT22;59069;52.242;20.900;2024-02-21T12:27:48;8.36;83.97
70676;DHT22;59069;52.242;20.900;2024-02-21T12:30:14;8.36;84.19
70676;DHT22;59069;52.242;20.900;2024-02-21T12:32:40;8.38;84.34
70676;DHT22;59069;52.242;20.900;2024-02-21T12:35:06;8.41;84.21
70676;DHT22;59069;52.242;20.900;2024-02-21T12:37:32;8.38;84.22
70676;DHT22;59069;52.242;20.900;2024-02-21T12:39:58;8.36;84.43
70676;DHT22;59069;52.242;20.900;2024-02-21T12:42:23;8.38;84.30
70676;DHT22;59069;52.242;20.900;2024-02-21T12:44:51;8.35;84.35
70676;DHT22;59069;52.242;20.900;2024-02-21T12:47:17;8.35;84.41
70676;DHT22;59069;52.242;20.900;2024-02-21T12:49:45;8.32;84.45
70676;DHT22;59069;52.242;20.900;2024-02-21T12:52:10;8.28;84.59
70676;DHT22;59069;52.242;20.900;2024-02-21T12:54:36;8.28;84.73
70676;DHT22;59069;52.242;20.900;2024-02-21T12:57:01;8.26;84.77
70676;DHT22;59069;52.242;20.900;2024-02-21T12:59:28;8.25;85.07
70676;DHT22;59069;52.242;20.900;2024-02-21T13:01:54;8.25;85.16
70676;DHT22;59069;52.242;20.900;2024-02-21T13:04:19;8.25;84.91
70676;DHT22;59069;52.242;20.900;2024-02-21T13:06:46;8.28;84.98
70676;DHT22;59069;52.242;20.900;2024-02-21T13:09:12;8.28;85.04
70676;DHT22;59069;52.242;20.900;2024-02-21T13:11:39;8.28;85.04
70676;DHT22;59069;52.242;20.900;2024-02-21T13:14:05;8.31;85.24
70676;DHT22;59069;52.242;20.900;2024-02-21T13:16:31;8.32;85.07
70676;DHT22;59069;52.242;20.900;2024-02-21T13:18:56;8.31;84.93
70676;DHT22;59069;52.242;20.900;2024-02-21T13:21:22;8.29;85.03
70676;DHT22;59069;52.242;20.900;2024-02-21T13:23:47;8.29;85.14
70676;DHT22;59069;52.242;20.900;2024-02-21T13:26:13;8.26;85.06
70676;DHT22;59069;52.242;20.900;2024-02-21T13:28:39;8.22;85.07
70676;DHT22;59069;52.242;20.900;2024-02-21T13:31:04;8.24;85.35
70676;DHT22;59069;52.242;20.900;2024-02-21T13:33:30;8.21;85.36
70676;DHT22;59069;52.242;20.900;2024-02-21T13:35:55;8.20;85.40
70676;DHT22;59069;52.242;20.900;2024-02-21T13:38:20;8.21;85.53
70676;DHT22;59069;52.242;20.900;2024-02-21T13:40:46;8.22;85.76
70676;DHT22;59069;52.242;20.900;2024-02-21T13:43:11;8.25;85.80
70676;DHT22;59069;52.242;20.900;2024-02-21T13:45:38;8.24;85.82
70676;DHT22;59069;52.242;20.900;2024-02-21T13:48:03;8.25;85.92
70676;DHT22;59069;52.242;20.900;2024-02-21T13:50:31;8.26;85.92
70676;DHT22;59069;52.242;20.900;2024-02-21T13:52:57;8.26;85.97
70676;DHT22;59069;52.242;20.900;2024-02-21T13:55:22;8.29;85.93
70676;DHT22;59069;52.242;20.900;2024-02-21T13:57:51;8.29;86.03
70676;DHT22;59069;52.242;20.900;2024-02-21T14:00:16;8.29;86.13
70676;DHT22;59069;52.242;20.900;2024-02-21T14:02:43;8.31;86.29
70676;DHT22;59069;52.242;20.900;2024-02-21T14:05:09;8.32;86.32
70676;DHT22;59069;52.242;20.900;2024-02-21T14:07:34;8.36;86.36
70676;DHT22;59069;52.242;20.900;2024-02-21T14:10:00;8.38;86.33
70676;DHT22;59069;52.242;20.900;2024-02-21T14:12:25;8.41;86.11
70676;DHT22;59069;52.242;20.900;2024-02-21T14:14:50;8.39;85.62
70676;DHT22;59069;52.242;20.900;2024-02-21T14:17:17;8.39;85.63
70676;DHT22;59069;52.242;20.900;2024-02-21T14:19:42;8.41;85.88
70676;DHT22;59069;52.242;20.900;2024-02-21T14:22:08;8.48;86.27
70676;DHT22;59069;52.242;20.900;2024-02-21T14:24:33;8.50;86.18
70676;DHT22;59069;52.242;20.900;2024-02-21T14:26:58;8.49;85.73
70676;DHT22;59069;52.242;20.900;2024-02-21T14:29:25;8.50;85.29
70676;DHT22;59069;52.242;20.900;2024-02-21T14:31:50;8.46;85.08
70676;DHT22;59069;52.242;20.900;2024-02-21T14:34:16;8.45;85.06
70676;DHT22;59069;52.242;20.900;2024-02-21T14:36:41;8.41;85.15
70676;DHT22;59069;52.242;20.900;2024-02-21T14:39:07;8.41;85.23
70676;DHT22;59069;52.242;20.900;2024-02-21T14:41:32;8.39;85.19
70676;DHT22;59069;52.242;20.900;2024-02-21T14:44:00;8.32;85.21
70676;DHT22;59069;52.242;20.900;2024-02-21T14:46:26;8.28;85.08
70676;DHT22;59069;52.242;20.900;2024-02-21T14:48:57;8.25;85.13
70676;DHT22;59069;52.242;20.900;2024-02-21T14:51:22;8.22;85.22
70676;DHT22;59069;52.242;20.900;2024-02-21T14:53:47;8.25;85.18
70676;DHT22;59069;52.242;20.900;2024-02-21T14:56:14;8.20;85.14
70676;DHT22;59069;52.242;20.900;2024-02-21T14:58:45;8.15;85.07
70676;DHT22;59069;52.242;20.900;2024-02-21T15:01:12;8.14;85.11
70676;DHT22;59069;52.242;20.900;2024-02-21T15:03:38;8.08;85.16
70676;DHT22;59069;52.242;20.900;2024-02-21T15:06:03;8.04;85.16
70676;DHT22;59069;52.242;20.900;2024-02-21T15:08:29;8.04;85.23
70676;DHT22;59069;52.242;20.900;2024-02-21T15:10:54;8.04;85.29
70676;DHT22;59069;52.242;20.900;2024-02-21T15:13:20;8.02;85.24
70676;DHT22;59069;52.242;20.900;2024-02-21T15:15:47;7.99;85.26
70676;DHT22;59069;52.242;20.900;2024-02-21T15:18:13;8.02;85.35
70676;DHT22;59069;52.242;20.900;2024-02-21T15:20:40;8.01;85.34
70676;DHT22;59069;52.242;20.900;2024-02-21T15:23:05;7.99;85.24
70676;DHT22;59069;52.242;20.900;2024-02-21T15:25:30;8.02;85.20